Campobello, South Carolina
Current Conditions -  °F | °C
As of 4:53 PM on Wednesday 22 Oct 2014 (Local Time) from KGSP Reporting Station
Clear Clear  
Wind Chill: 65°   Ceiling: Unl
Heat Index: 65°   Visibility: 10mi
Dew Point: 40°   Wind: 8mph
Humidity: 40%   Direction: 350°N
Pressure: 30.04"   Gusts: NA
Location:  35.12°N, 82.15°W
Report Text: KGSP 222053Z 35007KT 10SM CLR 18/04 A3004 RMK AO2 SLP170 T01830044 58005
Loading
Personal Weather Stations






























Interactive Weather Map
Tropical Storm Tracking
New forecast layout! Learn more

10-Day Weather Forecast

Advertisements
Track Severe Weather on mobile